Island Grove, Florida
Current Conditions -  °F | °C
As of 1:53 PM on Thursday 27 Nov 2014 (Local Time) from KGNV Reporting Station
Clear Clear  
Wind Chill: 63°   Ceiling: Unl
Heat Index: 63°   Visibility: 10mi
Dew Point: 33°   Wind: 13mph
Humidity: 33%   Direction: 320°NW
Pressure: 30.21"   Gusts: 20mph
Location:  29.45°N, 82.11°W
Report Text: KGNV 271853Z 32011G17KT 10SM CLR 17/01 A3021 RMK AO2 SLP229 T01720006
Loading
Personal Weather Stations






























Interactive Weather Map New forecast layout! Learn more

10-Day Weather Forecast

Advertisements
Track Severe Weather on mobile